createdAt,value
2022-08-22T00:20:28.563Z,7.40
2022-08-22T00:42:33.148Z,8.80
2022-08-22T01:04:59.845Z,8.10
2022-08-22T01:27:24.904Z,8.20
2022-08-22T01:49:19.472Z,8.70
2022-08-22T02:11:10.575Z,8.80
2022-08-22T02:33:06.808Z,6.40
2022-08-22T02:55:05.258Z,7.80
2022-08-22T03:16:56.545Z,9.10
2022-08-22T03:38:54.191Z,7.50
2022-08-22T04:01:10.027Z,7.50
2022-08-22T04:23:26.753Z,7.10
2022-08-22T04:45:18.466Z,8.20
2022-08-22T05:07:12.124Z,10.50
2022-08-22T05:29:03.323Z,8.10
2022-08-22T05:50:55.613Z,7.60
2022-08-22T06:12:46.074Z,6.00
2022-08-22T06:34:38.439Z,9.80
2022-08-22T06:56:29.799Z,7.10
2022-08-22T07:18:22.064Z,7.30
2022-08-22T07:40:17.750Z,6.40
2022-08-22T08:02:07.302Z,6.00
2022-08-22T08:23:54.974Z,6.00
2022-08-22T08:45:59.135Z,5.10
2022-08-22T09:08:27.649Z,5.30
2022-08-22T09:30:16.772Z,6.80
2022-08-22T09:52:15.466Z,8.60
2022-08-22T10:14:22.777Z,8.80
2022-08-22T10:36:12.274Z,10.90
2022-08-22T10:58:09.909Z,9.00
2022-08-22T11:20:19.443Z,10.20
2022-08-22T11:42:11.657Z,9.80
2022-08-22T12:04:16.999Z,12.70
2022-08-22T12:26:15.109Z,12.50
2022-08-22T12:48:13.280Z,11.70
2022-08-22T13:10:03.720Z,11.90
2022-08-22T13:31:56.190Z,13.10
2022-08-22T13:53:49.824Z,13.00
2022-08-22T14:15:47.390Z,15.60
2022-08-22T14:37:38.777Z,15.60
2022-08-22T14:59:37.295Z,16.00
2022-08-22T15:21:26.330Z,18.20
2022-08-22T15:43:21.766Z,19.90
2022-08-22T16:05:23.117Z,19.70
2022-08-22T16:49:05.471Z,17.80
2022-08-22T17:11:07.015Z,20.00
2022-08-22T17:33:09.208Z,18.20
2022-08-22T17:54:58.700Z,22.10
2022-08-22T18:16:50.492Z,19.20
2022-08-22T18:38:42.329Z,18.30
2022-08-22T19:00:49.575Z,20.80
2022-08-22T19:22:37.123Z,17.90
2022-08-22T19:44:40.447Z,15.70
2022-08-22T20:06:44.023Z,17.70
2022-08-22T20:28:49.814Z,12.70
2022-08-22T20:50:35.931Z,12.20
2022-08-22T21:12:22.473Z,13.10
2022-08-22T21:34:13.095Z,12.90
2022-08-22T22:18:14.037Z,11.90
2022-08-22T22:40:00.852Z,11.60
2022-08-22T23:02:09.087Z,9.70
2022-08-22T23:23:57.603Z,13.20
2022-08-22T23:45:43.322Z,12.30
